Weather at Brisbane Archerfield Airport

Public forecast

Using degrees Celsius for public forecast. Weather courtesy of forecast.io.

Closest aviation weather report (METAR) to Brisbane Archerfield Airport

Closest report is Brisbane International Airport, 12.6 nm (23.3 km) NNE. Retrieved 2020/12/01 19:30 UTC (23 minutes ago):

YBBN 011930Z 01013KT 9999 FEW014 25/21 Q1013

Closest aviation forecast (TAF) to Brisbane Archerfield Airport

Closest forecast is Brisbane International Airport, 12.6 nm (23.3 km) NNE. Retrieved 2020/12/01 18:46 UTC (1 hour ago):

TAF YBBN 011706Z 0118/0300 36014KT 9999 FU FEW012 FM020000 02014KT 9999 NSW FEW030 FM020900 07008KT 9999 SCT020 FM021200 14012KT 9999 -SHRA SCT015 FM022200 13012KT 9999 NSW SCT020 INTER 0212/0218 4000 SHRA BKN010